createdAt,value
2023-01-03T00:00:38.222Z,45.80
2023-01-03T00:03:02.886Z,46.05
2023-01-03T00:05:27.357Z,43.97
2023-01-03T00:07:51.780Z,46.63
2023-01-03T00:10:16.129Z,43.42
2023-01-03T00:12:39.485Z,45.80
2023-01-03T00:15:05.947Z,43.42
2023-01-03T00:17:30.640Z,46.90
2023-01-03T00:19:55.207Z,47.00
2023-01-03T00:22:19.631Z,45.47
2023-01-03T00:24:44.883Z,44.45
2023-01-03T00:27:09.478Z,46.67
2023-01-03T00:29:34.632Z,45.75
2023-01-03T00:32:00.560Z,46.22
2023-01-03T00:34:24.981Z,46.47
2023-01-03T00:36:49.388Z,46.15
2023-01-03T00:39:14.076Z,44.55
2023-01-03T00:41:38.897Z,46.42
2023-01-03T00:44:03.657Z,45.70
2023-01-03T00:46:28.118Z,46.40
2023-01-03T00:48:54.065Z,46.35
2023-01-03T00:51:20.838Z,47.60
2023-01-03T00:53:46.870Z,47.15
2023-01-03T00:56:13.742Z,45.20
2023-01-03T00:58:38.879Z,48.13
2023-01-03T01:01:06.951Z,47.30
2023-01-03T01:03:31.475Z,47.70
2023-01-03T01:05:57.235Z,49.22
2023-01-03T01:08:21.655Z,47.03
2023-01-03T01:11:04.243Z,49.20
2023-01-03T01:13:28.964Z,46.35
2023-01-03T01:15:54.650Z,48.88
2023-01-03T01:18:20.637Z,49.67
2023-01-03T01:20:45.093Z,48.70
2023-01-03T01:23:10.946Z,49.03
2023-01-03T01:25:35.959Z,48.10
2023-01-03T01:28:00.328Z,47.42
2023-01-03T01:30:24.825Z,49.00
2023-01-03T01:32:49.623Z,49.10
2023-01-03T01:35:14.195Z,50.22
2023-01-03T01:37:38.544Z,46.92
2023-01-03T01:40:04.516Z,49.28
2023-01-03T01:42:46.508Z,48.20
2023-01-03T01:45:15.304Z,49.92
2023-01-03T01:47:45.172Z,48.60
2023-01-03T01:50:19.233Z,48.72
2023-01-03T01:52:47.667Z,48.58
2023-01-03T01:55:17.470Z,48.00
2023-01-03T01:57:43.343Z,48.03
2023-01-03T02:00:10.887Z,46.50
2023-01-03T02:02:41.857Z,47.20
2023-01-03T02:05:09.898Z,48.60
2023-01-03T02:07:34.863Z,46.90
2023-01-03T02:10:00.199Z,48.53
2023-01-03T02:12:56.985Z,47.05
2023-01-03T02:15:53.130Z,45.53
2023-01-03T02:18:33.318Z,47.00
2023-01-03T02:24:23.083Z,45.95
2023-01-03T02:26:58.652Z,46.40
2023-01-03T02:30:26.147Z,47.20
2023-01-03T02:33:02.958Z,49.08
2023-01-03T02:35:32.969Z,48.70
2023-01-03T02:40:29.708Z,46.92
2023-01-03T02:43:02.575Z,47.45
2023-01-03T02:45:41.599Z,46.30
2023-01-03T02:48:12.869Z,49.92
2023-01-03T02:50:44.158Z,46.60
2023-01-03T02:53:13.912Z,47.90
2023-01-03T02:55:40.315Z,45.90
2023-01-03T02:58:08.242Z,46.67
2023-01-03T03:00:35.261Z,49.35
2023-01-03T03:03:02.254Z,47.28
2023-01-03T03:05:33.585Z,47.20
2023-01-03T03:07:58.139Z,47.35
2023-01-03T03:10:52.176Z,47.60
2023-01-03T03:13:24.192Z,47.05
2023-01-03T03:15:55.980Z,47.53
2023-01-03T03:18:23.965Z,47.83
2023-01-03T03:21:07.428Z,47.28
2023-01-03T03:23:53.345Z,46.00
2023-01-03T03:26:21.634Z,47.55
2023-01-03T03:28:49.947Z,46.70
2023-01-03T03:31:18.759Z,45.35
2023-01-03T03:33:46.768Z,44.95
2023-01-03T03:36:17.441Z,44.03
2023-01-03T03:38:44.728Z,46.08
2023-01-03T03:41:45.506Z,44.78
2023-01-03T03:44:37.403Z,45.00
2023-01-03T03:47:10.123Z,45.33
2023-01-03T03:49:40.558Z,46.90
2023-01-03T03:52:10.836Z,46.25
2023-01-03T03:54:38.223Z,46.08
2023-01-03T03:57:07.225Z,45.53
2023-01-03T03:59:33.561Z,46.63
2023-01-03T04:02:00.459Z,43.85
2023-01-03T04:04:30.472Z,46.20
2023-01-03T04:06:55.204Z,44.33
2023-01-03T04:09:21.400Z,44.47
2023-01-03T04:11:45.849Z,46.92
2023-01-03T04:14:10.270Z,45.80
2023-01-03T04:16:34.789Z,45.30
2023-01-03T04:18:59.209Z,44.97
2023-01-03T04:21:23.564Z,45.53
2023-01-03T04:23:47.947Z,45.05
2023-01-03T04:26:13.809Z,46.30
2023-01-03T04:28:38.220Z,44.03
2023-01-03T04:31:02.732Z,43.47
2023-01-03T04:33:27.086Z,43.97
2023-01-03T04:35:51.488Z,44.53
2023-01-03T04:38:15.859Z,45.42
2023-01-03T04:40:40.381Z,44.83
2023-01-03T04:43:23.516Z,43.85
2023-01-03T04:45:50.163Z,43.15
2023-01-03T04:48:14.648Z,43.13
2023-01-03T04:50:39.012Z,45.22
2023-01-03T04:53:03.446Z,44.50
2023-01-03T04:55:27.906Z,44.97
2023-01-03T04:57:52.273Z,42.30
2023-01-03T05:00:19.173Z,40.70
2023-01-03T05:02:43.549Z,43.53
2023-01-03T05:05:09.043Z,42.65
2023-01-03T05:07:33.469Z,41.75
2023-01-03T05:09:57.853Z,42.97
2023-01-03T05:12:22.233Z,42.92
2023-01-03T05:14:46.857Z,42.70
2023-01-03T05:17:12.724Z,41.67
2023-01-03T05:19:57.426Z,42.53
2023-01-03T05:22:39.005Z,42.60
2023-01-03T05:25:20.796Z,42.35
2023-01-03T05:27:46.413Z,42.78
2023-01-03T05:30:11.586Z,42.47
2023-01-03T05:32:37.460Z,41.08
2023-01-03T05:35:01.855Z,42.65
2023-01-03T05:37:27.639Z,42.17
2023-01-03T05:39:51.976Z,42.58
2023-01-03T05:42:16.629Z,41.97
2023-01-03T05:44:40.965Z,43.33
2023-01-03T05:47:06.439Z,42.70
2023-01-03T05:49:33.546Z,43.03
2023-01-03T05:51:57.963Z,44.45
2023-01-03T05:54:22.657Z,44.00
2023-01-03T05:56:47.220Z,44.42
2023-01-03T05:59:12.152Z,42.60
2023-01-03T06:01:36.898Z,42.33
2023-01-03T06:04:01.709Z,40.03
2023-01-03T06:06:27.895Z,39.63
2023-01-03T06:08:52.282Z,38.95
2023-01-03T06:11:17.831Z,38.15
2023-01-03T06:13:42.552Z,36.90
2023-01-03T06:16:27.523Z,37.08
2023-01-03T06:18:52.087Z,36.85
2023-01-03T06:21:16.543Z,38.13
2023-01-03T06:23:42.762Z,37.53
2023-01-03T06:26:07.528Z,37.00
2023-01-03T06:28:32.828Z,37.05
2023-01-03T06:30:57.229Z,36.80
2023-01-03T06:33:21.859Z,37.25
2023-01-03T06:35:46.195Z,37.63
2023-01-03T06:38:10.579Z,36.10
2023-01-03T06:40:40.703Z,35.83
2023-01-03T06:43:08.709Z,36.92
2023-01-03T06:45:50.364Z,37.33
2023-01-03T06:48:32.307Z,36.20
2023-01-03T06:51:14.436Z,36.22
2023-01-03T06:53:40.786Z,37.75
2023-01-03T06:56:07.021Z,38.20
2023-01-03T06:58:31.663Z,38.47
2023-01-03T07:00:57.361Z,43.58
2023-01-03T07:03:22.221Z,37.13
2023-01-03T07:05:46.585Z,39.10
2023-01-03T07:08:11.061Z,39.33
2023-01-03T07:10:35.382Z,41.13
2023-01-03T07:13:20.579Z,39.92
2023-01-03T07:15:45.410Z,39.22
2023-01-03T07:18:09.726Z,40.40
2023-01-03T07:20:34.189Z,39.85
2023-01-03T07:22:58.513Z,39.58
2023-01-03T07:25:22.923Z,38.33
2023-01-03T07:27:58.756Z,39.13
2023-01-03T07:30:29.957Z,39.40
2023-01-03T07:32:54.288Z,40.28
2023-01-03T07:35:19.021Z,39.42
2023-01-03T07:37:43.353Z,39.22
2023-01-03T07:40:09.379Z,38.33
2023-01-03T07:42:51.549Z,39.17
2023-01-03T07:45:16.403Z,36.55
2023-01-03T07:47:47.589Z,38.50
2023-01-03T07:50:12.611Z,38.33
2023-01-03T07:52:37.323Z,39.05
2023-01-03T07:55:01.773Z,38.47
2023-01-03T07:57:27.114Z,37.85
2023-01-03T07:59:51.928Z,37.83
2023-01-03T08:02:16.983Z,39.30
2023-01-03T08:04:43.051Z,37.80
2023-01-03T08:07:08.062Z,37.17
2023-01-03T08:09:49.659Z,36.42
2023-01-03T08:12:33.961Z,38.03
2023-01-03T08:14:59.069Z,38.47
2023-01-03T08:17:23.715Z,34.90
2023-01-03T08:19:49.774Z,35.33
2023-01-03T08:22:14.283Z,35.15
2023-01-03T08:24:39.149Z,32.75
2023-01-03T08:27:05.046Z,29.73
2023-01-03T08:29:29.734Z,29.80
2023-01-03T08:32:00.300Z,29.70
2023-01-03T08:34:29.763Z,30.40
2023-01-03T08:39:28.353Z,27.15
2023-01-03T08:41:58.980Z,28.00
2023-01-03T08:44:23.414Z,27.83
2023-01-03T08:46:51.284Z,29.38
2023-01-03T08:49:16.248Z,28.02
2023-01-03T08:51:41.079Z,27.77
2023-01-03T08:54:07.050Z,29.80
2023-01-03T08:56:31.358Z,32.10
2023-01-03T08:58:57.701Z,31.98
2023-01-03T09:01:22.254Z,32.78
2023-01-03T09:03:46.760Z,28.98
2023-01-03T09:06:11.363Z,28.38
2023-01-03T09:08:36.538Z,30.55
2023-01-03T09:11:05.996Z,30.65
2023-01-03T09:16:02.444Z,30.60
2023-01-03T09:18:26.910Z,30.17
2023-01-03T09:20:53.237Z,30.92
2023-01-03T09:23:17.568Z,30.75
2023-01-03T09:25:41.840Z,33.20
2023-01-03T09:28:07.776Z,30.52
2023-01-03T09:30:32.121Z,30.52
2023-01-03T09:32:59.345Z,29.17
2023-01-03T09:35:23.787Z,29.70
2023-01-03T09:37:49.164Z,29.65
2023-01-03T09:40:14.467Z,29.30
2023-01-03T09:42:56.775Z,30.65
2023-01-03T09:45:28.653Z,30.27
2023-01-03T09:47:53.225Z,31.25
2023-01-03T09:50:57.153Z,31.75
2023-01-03T09:53:24.882Z,30.90
2023-01-03T09:56:11.078Z,31.50
2023-01-03T09:58:52.964Z,31.55
2023-01-03T10:01:49.020Z,31.95
2023-01-03T10:04:42.555Z,31.25
2023-01-03T10:07:19.968Z,33.55
2023-01-03T10:09:50.860Z,33.00
2023-01-03T10:12:24.580Z,31.58
2023-01-03T10:15:04.479Z,31.48
2023-01-03T10:17:38.141Z,31.30
2023-01-03T10:20:27.903Z,31.75
2023-01-03T10:22:58.099Z,31.92
2023-01-03T10:25:24.947Z,33.28
2023-01-03T10:27:51.936Z,33.78
2023-01-03T10:30:19.382Z,32.47
2023-01-03T10:33:23.576Z,32.97
2023-01-03T10:35:49.621Z,32.40
2023-01-03T10:38:17.324Z,33.28
2023-01-03T10:40:45.622Z,32.33
2023-01-03T10:43:16.654Z,34.00
2023-01-03T10:45:53.986Z,33.50
2023-01-03T10:48:19.139Z,35.28
2023-01-03T10:50:43.406Z,34.90
2023-01-03T10:53:12.330Z,32.97
2023-01-03T10:55:47.051Z,33.58
2023-01-03T10:58:21.220Z,34.28
2023-01-03T11:00:45.782Z,32.50
2023-01-03T11:03:16.879Z,32.28
2023-01-03T11:05:43.270Z,31.45
2023-01-03T11:08:17.721Z,29.67
2023-01-03T11:10:53.677Z,27.95
2023-01-03T11:13:29.028Z,30.13
2023-01-03T11:15:56.170Z,31.63
2023-01-03T11:18:21.833Z,30.13
2023-01-03T11:20:51.661Z,32.08
2023-01-03T11:26:03.953Z,31.08
2023-01-03T11:28:54.786Z,30.83
2023-01-03T11:31:39.583Z,30.10
2023-01-03T11:34:17.379Z,30.77
2023-01-03T11:36:49.995Z,32.63
2023-01-03T11:39:30.205Z,33.40
2023-01-03T11:42:22.031Z,32.22
2023-01-03T11:45:15.799Z,33.95
2023-01-03T11:47:49.169Z,32.88
2023-01-03T11:50:25.921Z,34.72
2023-01-03T11:52:57.786Z,33.72
2023-01-03T11:55:41.601Z,34.55
2023-01-03T11:58:28.707Z,34.97
2023-01-03T12:01:02.268Z,36.05
2023-01-03T12:03:38.649Z,36.35
2023-01-03T12:06:11.938Z,36.63
2023-01-03T12:08:49.733Z,37.10
2023-01-03T12:11:39.857Z,37.90
2023-01-03T12:14:11.116Z,38.90
2023-01-03T12:16:39.439Z,41.42
2023-01-03T12:19:12.603Z,44.08
2023-01-03T12:21:39.229Z,44.42
2023-01-03T12:24:12.683Z,46.25
2023-01-03T12:26:41.982Z,45.83
2023-01-03T12:29:12.871Z,45.78
2023-01-03T12:31:40.881Z,46.70
2023-01-03T12:34:18.827Z,49.28
2023-01-03T12:36:49.807Z,47.53
2023-01-03T12:39:33.631Z,48.25
2023-01-03T12:42:04.943Z,46.13
2023-01-03T12:44:35.015Z,47.63
2023-01-03T12:47:01.540Z,48.70
2023-01-03T12:49:32.887Z,48.67
2023-01-03T12:51:57.377Z,50.40
2023-01-03T12:54:35.181Z,48.80
2023-01-03T12:57:27.002Z,47.60
2023-01-03T13:00:24.195Z,47.42
2023-01-03T13:02:53.248Z,45.72
2023-01-03T13:05:23.898Z,44.55
2023-01-03T13:07:54.440Z,47.75
2023-01-03T13:10:21.855Z,48.95
2023-01-03T13:12:51.610Z,47.65
2023-01-03T13:15:27.353Z,47.58
2023-01-03T13:17:54.501Z,47.53
2023-01-03T13:20:36.556Z,45.67
2023-01-03T13:23:02.041Z,46.40
2023-01-03T13:25:41.101Z,46.75
2023-01-03T13:28:29.821Z,44.57
2023-01-03T13:31:38.178Z,46.83
2023-01-03T13:34:15.913Z,47.42
2023-01-03T13:37:16.272Z,45.03
2023-01-03T13:39:41.868Z,44.60
2023-01-03T13:42:06.956Z,45.55
2023-01-03T13:44:34.343Z,43.88
2023-01-03T13:46:59.634Z,44.67
2023-01-03T13:49:27.144Z,46.38
2023-01-03T13:51:53.108Z,44.67
2023-01-03T13:54:35.413Z,47.58
2023-01-03T13:57:05.161Z,45.05
2023-01-03T13:59:37.269Z,46.75
2023-01-03T14:02:40.580Z,47.95
2023-01-03T14:05:39.557Z,46.67
2023-01-03T14:08:23.694Z,46.33
2023-01-03T14:11:18.411Z,47.95
2023-01-03T14:13:44.960Z,47.13
2023-01-03T14:16:25.297Z,48.97
2023-01-03T14:18:59.038Z,45.55
2023-01-03T14:21:28.589Z,47.58
2023-01-03T14:24:01.174Z,47.72
2023-01-03T14:26:26.546Z,46.47
2023-01-03T14:28:54.075Z,48.72
2023-01-03T14:31:22.549Z,48.30
2023-01-03T14:33:53.358Z,50.53
2023-01-03T14:36:19.276Z,49.03
2023-01-03T14:38:49.057Z,49.08
2023-01-03T14:41:28.163Z,51.92
2023-01-03T14:44:01.176Z,51.38
2023-01-03T14:46:28.560Z,50.22
2023-01-03T14:48:56.711Z,50.42
2023-01-03T14:51:24.388Z,52.45
2023-01-03T14:53:49.102Z,50.20
2023-01-03T14:56:14.536Z,50.97
2023-01-03T14:58:42.227Z,52.72
2023-01-03T15:01:08.543Z,53.42
2023-01-03T15:03:40.692Z,52.95
2023-01-03T15:06:19.724Z,53.42
2023-01-03T15:08:45.587Z,55.05
2023-01-03T15:11:11.253Z,55.22
2023-01-03T15:13:38.652Z,55.90
2023-01-03T15:16:06.419Z,58.40
2023-01-03T15:18:34.382Z,57.22
2023-01-03T15:21:04.201Z,60.67
2023-01-03T15:23:39.043Z,59.73
2023-01-03T15:26:03.836Z,62.63
2023-01-03T15:28:30.389Z,62.15
2023-01-03T15:30:57.087Z,63.30
2023-01-03T15:33:33.344Z,61.63
2023-01-03T15:35:59.868Z,62.05
2023-01-03T15:38:34.552Z,62.25
2023-01-03T15:40:59.239Z,61.72
2023-01-03T15:43:28.689Z,57.92
2023-01-03T15:46:02.418Z,60.17
2023-01-03T15:48:28.033Z,59.03
2023-01-03T15:50:55.985Z,60.38
2023-01-03T15:53:27.403Z,56.42
2023-01-03T15:55:53.821Z,55.17
2023-01-03T15:58:18.990Z,55.80
2023-01-03T16:00:44.474Z,55.83
2023-01-03T16:03:16.198Z,55.17
2023-01-03T16:05:41.795Z,58.20
2023-01-03T16:08:12.127Z,61.58
2023-01-03T16:10:38.869Z,59.60
2023-01-03T16:13:03.401Z,63.33
2023-01-03T16:15:28.566Z,59.97
2023-01-03T16:17:53.177Z,61.20
2023-01-03T16:20:19.797Z,65.07
2023-01-03T16:22:57.674Z,57.20
2023-01-03T16:25:26.289Z,59.60
2023-01-03T16:27:52.146Z,62.83
2023-01-03T16:30:16.790Z,54.00
2023-01-03T16:32:41.577Z,57.85
2023-01-03T16:35:16.423Z,68.18
2023-01-03T16:37:40.898Z,69.70
2023-01-03T16:40:05.991Z,61.45
2023-01-03T16:42:30.919Z,57.00
2023-01-03T16:44:58.092Z,76.40
2023-01-03T16:47:24.513Z,90.82
2023-01-03T16:49:52.880Z,75.03
2023-01-03T16:52:22.477Z,71.93
2023-01-03T16:54:47.879Z,72.45
2023-01-03T16:57:18.773Z,65.03
2023-01-03T16:59:43.547Z,66.65
2023-01-03T17:02:09.659Z,76.88
2023-01-03T17:04:34.333Z,80.35
2023-01-03T17:06:59.464Z,90.20
2023-01-03T17:09:31.657Z,76.15
2023-01-03T17:11:56.202Z,71.63
2023-01-03T17:14:23.479Z,69.32
2023-01-03T17:16:48.584Z,75.32
2023-01-03T17:20:01.147Z,76.18
2023-01-03T17:22:05.043Z,88.07
2023-01-03T17:24:30.202Z,82.35
2023-01-03T17:27:00.701Z,89.72
2023-01-03T17:29:27.260Z,74.70
2023-01-03T17:31:51.857Z,65.57
2023-01-03T17:34:24.730Z,64.18
2023-01-03T17:36:50.290Z,55.72
2023-01-03T17:39:14.840Z,45.30
2023-01-03T17:41:53.151Z,40.35
2023-01-03T17:44:18.798Z,39.13
2023-01-03T17:47:01.276Z,38.38
2023-01-03T17:49:27.304Z,38.40
2023-01-03T17:51:52.839Z,36.65
2023-01-03T17:54:17.628Z,37.28
2023-01-03T17:56:42.284Z,35.00
2023-01-03T17:59:06.769Z,35.20
2023-01-03T18:01:31.340Z,35.70
2023-01-03T18:03:56.095Z,34.45
2023-01-03T18:06:25.570Z,31.83
2023-01-03T18:08:51.817Z,35.58
2023-01-03T18:11:19.111Z,33.25
2023-01-03T18:13:44.459Z,31.20
2023-01-03T18:16:13.337Z,32.47
2023-01-03T18:18:38.101Z,31.08
2023-01-03T18:21:03.359Z,32.90
2023-01-03T18:23:32.914Z,31.88
2023-01-03T18:26:00.774Z,30.13
2023-01-03T18:28:27.765Z,30.10
2023-01-03T18:30:52.268Z,30.38
2023-01-03T18:33:16.892Z,28.92
2023-01-03T18:35:41.904Z,30.50
2023-01-03T18:38:06.956Z,28.73
2023-01-03T18:40:33.368Z,30.80
2023-01-03T18:43:11.326Z,29.42
2023-01-03T18:45:36.518Z,30.83
2023-01-03T18:48:01.256Z,28.35
2023-01-03T18:50:26.676Z,28.13
2023-01-03T18:52:52.759Z,30.35
2023-01-03T18:55:20.606Z,29.35
2023-01-03T18:57:48.340Z,31.25
2023-01-03T19:00:17.904Z,35.33
2023-01-03T19:02:42.638Z,39.65
2023-01-03T19:05:08.504Z,41.75
2023-01-03T19:07:34.880Z,42.70
2023-01-03T19:10:00.213Z,35.92
2023-01-03T19:12:25.859Z,33.28
2023-01-03T19:14:52.154Z,33.92
2023-01-03T19:17:18.740Z,32.03
2023-01-03T19:19:43.570Z,29.92
2023-01-03T19:22:18.665Z,31.33
2023-01-03T19:24:45.100Z,30.10
2023-01-03T19:27:14.996Z,30.67
2023-01-03T19:32:08.559Z,28.35
2023-01-03T19:34:33.473Z,30.02
2023-01-03T19:36:59.512Z,29.13
2023-01-03T19:39:26.252Z,30.40
2023-01-03T19:42:11.509Z,30.40
2023-01-03T19:44:36.891Z,31.15
2023-01-03T19:47:01.721Z,30.17
2023-01-03T19:49:28.343Z,32.53
2023-01-03T19:51:52.874Z,31.60
2023-01-03T19:54:17.443Z,31.13
2023-01-03T19:56:41.897Z,33.92
2023-01-03T19:59:09.256Z,32.85
2023-01-03T20:01:50.531Z,32.33
2023-01-03T20:04:19.336Z,32.90
2023-01-03T20:06:45.362Z,37.17
2023-01-03T20:09:09.868Z,35.50
2023-01-03T20:11:34.430Z,34.10
2023-01-03T20:13:59.019Z,34.00
2023-01-03T20:16:24.102Z,34.65
2023-01-03T20:18:49.104Z,34.42
2023-01-03T20:21:22.642Z,32.75
2023-01-03T20:23:51.540Z,36.50
2023-01-03T20:26:22.835Z,35.13
2023-01-03T20:28:47.477Z,36.25
2023-01-03T20:31:16.743Z,38.50
2023-01-03T20:33:45.020Z,38.08
2023-01-03T20:36:22.509Z,37.25
2023-01-03T20:38:50.811Z,35.10
2023-01-03T20:41:17.231Z,36.03
2023-01-03T20:43:42.016Z,38.38
2023-01-03T20:46:06.981Z,39.10
2023-01-03T20:48:31.947Z,44.50
2023-01-03T20:50:57.037Z,42.63
2023-01-03T20:53:23.390Z,40.67
2023-01-03T20:55:50.061Z,43.65
2023-01-03T20:58:15.483Z,51.45
2023-01-03T21:00:40.263Z,54.55
2023-01-03T21:03:04.913Z,65.05
2023-01-03T21:05:29.455Z,47.58
2023-01-03T21:08:11.001Z,46.20
2023-01-03T21:10:38.740Z,40.20
2023-01-03T21:13:04.756Z,42.08
2023-01-03T21:15:29.267Z,42.22
2023-01-03T21:17:53.725Z,42.00
2023-01-03T21:20:20.217Z,44.78
2023-01-03T21:22:44.836Z,42.08
2023-01-03T21:25:23.275Z,42.42
2023-01-03T21:27:48.427Z,42.67
2023-01-03T21:30:16.361Z,40.92
2023-01-03T21:32:40.849Z,41.90
2023-01-03T21:35:05.840Z,43.38
2023-01-03T21:37:30.548Z,46.92
2023-01-03T21:39:55.461Z,45.42
2023-01-03T21:42:37.111Z,43.80
2023-01-03T21:45:02.037Z,46.75
2023-01-03T21:47:29.221Z,43.15
2023-01-03T21:49:53.857Z,44.47
2023-01-03T21:52:18.336Z,43.60
2023-01-03T21:54:42.892Z,42.55
2023-01-03T21:57:07.419Z,43.80
2023-01-03T21:59:32.175Z,43.83
2023-01-03T22:02:13.874Z,44.75
2023-01-03T22:04:40.059Z,45.15
2023-01-03T22:07:04.636Z,47.47
2023-01-03T22:09:46.989Z,48.20
2023-01-03T22:12:14.662Z,46.92
2023-01-03T22:14:40.388Z,42.90
2023-01-03T22:17:05.001Z,47.15
2023-01-03T22:19:29.848Z,45.42
2023-01-03T22:21:55.991Z,47.95
2023-01-03T22:24:20.459Z,47.97
2023-01-03T22:26:44.994Z,50.72
2023-01-03T22:29:09.410Z,47.60
2023-01-03T22:31:34.117Z,47.33
2023-01-03T22:33:58.626Z,44.53
2023-01-03T22:36:23.183Z,44.22
2023-01-03T22:38:49.386Z,46.47
2023-01-03T22:41:15.934Z,46.72
2023-01-03T22:43:40.793Z,44.97
2023-01-03T22:46:09.604Z,41.83
2023-01-03T22:48:34.130Z,43.60
2023-01-03T22:50:58.545Z,42.15
2023-01-03T22:53:23.271Z,44.05
2023-01-03T22:55:49.360Z,45.03
2023-01-03T22:58:16.403Z,42.53
2023-01-03T23:00:40.933Z,42.90
2023-01-03T23:03:05.608Z,42.75
2023-01-03T23:05:30.190Z,44.33
2023-01-03T23:07:54.643Z,41.92
2023-01-03T23:10:19.249Z,43.38
2023-01-03T23:12:59.084Z,45.35
2023-01-03T23:17:57.320Z,40.40
2023-01-03T23:20:21.902Z,41.92
2023-01-03T23:22:46.767Z,38.35
2023-01-03T23:25:11.987Z,41.88
2023-01-03T23:27:37.066Z,39.95
2023-01-03T23:30:03.022Z,42.25
2023-01-03T23:32:27.615Z,41.67
2023-01-03T23:34:52.515Z,42.50
2023-01-03T23:37:16.961Z,42.10
2023-01-03T23:39:41.580Z,42.65
2023-01-03T23:42:06.163Z,44.50
2023-01-03T23:44:31.003Z,40.97
2023-01-03T23:46:57.038Z,41.90
2023-01-03T23:49:21.807Z,36.08
2023-01-03T23:51:46.282Z,35.05
2023-01-03T23:54:11.333Z,36.97
2023-01-03T23:56:35.922Z,40.83
2023-01-03T23:59:00.604Z,37.42
